ANE635 LEZL-LEAS
Flight info
| Callsign | ANE635 |
|---|---|
| Flight time | 0h 59m |
| Altitude | 34000 |
| Route | HIJ DCT PARKA DCT MELON DCT ZMR DCT VETAN DCT OMESI/N0362F240 M30 XONDA |
| Aircraft | CRJX/M-SDFGIRWY/S |
Departure
| Time | 2026-04-29 21:41 |
|---|---|
| Airport | Seville Airport (LEZL) |
Arrival
| Time | 2026-04-29 22:40 |
|---|---|
| Airport | Asturias Airport (LEAS) |
| Time | Latitude | Longitude | Altitude | Speed | Heading |
|---|---|---|---|---|---|
| 2026-04-29 21:07 | 37.42189 | -5.89727 | 92 ft | 0 kts | 314° |
| 2026-04-29 21:32 | 37.42191 | -5.89731 | 92 ft | 2 kts | 314° |
| 2026-04-29 21:33 | 37.42210 | -5.89754 | 95 ft | 5 kts | 314° |
| 2026-04-29 21:33 | 37.42234 | -5.89783 | 92 ft | 3 kts | 339° |
| 2026-04-29 21:33 | 37.42241 | -5.89781 | 92 ft | 2 kts | 19° |
| 2026-04-29 21:33 | 37.42273 | -5.89750 | 94 ft | 6 kts | 62° |
| 2026-04-29 21:34 | 37.42267 | -5.89721 | 92 ft | 6 kts | 132° |
| 2026-04-29 21:34 | 37.42230 | -5.89675 | 94 ft | 9 kts | 136° |
| 2026-04-29 21:34 | 37.42179 | -5.89611 | 93 ft | 11 kts | 134° |
| 2026-04-29 21:34 | 37.42125 | -5.89540 | 97 ft | 12 kts | 134° |
| 2026-04-29 21:35 | 37.42063 | -5.89459 | 96 ft | 13 kts | 135° |
| 2026-04-29 21:35 | 37.41995 | -5.89372 | 97 ft | 14 kts | 129° |
| 2026-04-29 21:35 | 37.41983 | -5.89260 | 98 ft | 14 kts | 90° |
| 2026-04-29 21:35 | 37.41983 | -5.89132 | 98 ft | 16 kts | 90° |
| 2026-04-29 21:36 | 37.41983 | -5.88989 | 99 ft | 17 kts | 89° |
| 2026-04-29 21:36 | 37.41984 | -5.88832 | 100 ft | 20 kts | 90° |
| 2026-04-29 21:36 | 37.41984 | -5.88633 | 102 ft | 26 kts | 89° |
| 2026-04-29 21:36 | 37.41986 | -5.88411 | 103 ft | 25 kts | 89° |
| 2026-04-29 21:37 | 37.41986 | -5.88200 | 104 ft | 24 kts | 89° |
| 2026-04-29 21:37 | 37.41987 | -5.87997 | 105 ft | 23 kts | 90° |
| 2026-04-29 21:37 | 37.41988 | -5.87805 | 105 ft | 22 kts | 89° |
| 2026-04-29 21:37 | 37.41988 | -5.87621 | 107 ft | 21 kts | 90° |
| 2026-04-29 21:38 | 37.41961 | -5.87473 | 110 ft | 12 kts | 123° |
| 2026-04-29 21:38 | 37.41915 | -5.87432 | 112 ft | 0 kts | 165° |
| 2026-04-29 21:39 | 37.41907 | -5.87429 | 112 ft | 4 kts | 167° |
| 2026-04-29 21:39 | 37.41863 | -5.87428 | 114 ft | 9 kts | 181° |
| 2026-04-29 21:39 | 37.41815 | -5.87429 | 116 ft | 1 kts | 184° |
| 2026-04-29 21:40 | 37.41802 | -5.87442 | 116 ft | 2 kts | 243° |
| 2026-04-29 21:40 | 37.41801 | -5.87458 | 116 ft | 0 kts | 269° |
| 2026-04-29 21:40 | 37.41800 | -5.87578 | 113 ft | 43 kts | 270° |
| 2026-04-29 21:40 | 37.41798 | -5.88236 | 104 ft | 105 kts | 270° |
| 2026-04-29 21:41 | 37.41793 | -5.89369 | 99 ft | 152 kts | 269° |
| 2026-04-29 21:41 | 37.41789 | -5.90742 | 519 ft | 158 kts | 269° |
| 2026-04-29 21:41 | 37.41947 | -5.92092 | 1170 ft | 158 kts | 290° |
| 2026-04-29 21:41 | 37.42661 | -5.93162 | 1676 ft | 165 kts | 333° |
| 2026-04-29 21:42 | 37.43731 | -5.93724 | 2245 ft | 169 kts | 327° |
| 2026-04-29 21:42 | 37.44684 | -5.94599 | 2791 ft | 172 kts | 317° |
| 2026-04-29 21:42 | 37.45277 | -5.95278 | 3152 ft | 176 kts | 314° |
| 2026-04-29 21:42 | 37.46457 | -5.96779 | 3917 ft | 184 kts | 311° |
| 2026-04-29 21:43 | 37.47364 | -5.97954 | 4448 ft | 192 kts | 311° |
| 2026-04-29 21:43 | 37.48346 | -5.99231 | 4765 ft | 212 kts | 310° |
| 2026-04-29 21:43 | 37.49265 | -6.00411 | 5085 ft | 231 kts | 312° |
| 2026-04-29 21:43 | 37.50418 | -6.01864 | 5678 ft | 245 kts | 311° |
| 2026-04-29 21:44 | 37.51658 | -6.03423 | 6239 ft | 259 kts | 312° |
| 2026-04-29 21:44 | 37.52961 | -6.05045 | 6938 ft | 267 kts | 311° |
| 2026-04-29 21:44 | 37.54314 | -6.06746 | 7506 ft | 279 kts | 311° |
| 2026-04-29 21:44 | 37.55701 | -6.08492 | 8278 ft | 283 kts | 311° |
| 2026-04-29 21:45 | 37.57153 | -6.10213 | 9032 ft | 291 kts | 320° |
| 2026-04-29 21:45 | 37.59070 | -6.11142 | 9758 ft | 307 kts | 352° |
| 2026-04-29 21:45 | 37.61197 | -6.10711 | 10504 ft | 317 kts | 22° |
| 2026-04-29 21:45 | 37.63096 | -6.09205 | 10984 ft | 333 kts | 39° |
| 2026-04-29 21:46 | 37.64872 | -6.07217 | 11345 ft | 349 kts | 43° |
| 2026-04-29 21:46 | 37.66818 | -6.05297 | 11713 ft | 363 kts | 24° |
| 2026-04-29 21:46 | 37.69243 | -6.04559 | 12323 ft | 359 kts | 356° |
| 2026-04-29 21:46 | 37.71671 | -6.04950 | 12976 ft | 357 kts | 345° |
| 2026-04-29 21:47 | 37.74183 | -6.05151 | 13660 ft | 366 kts | 357° |
| 2026-04-29 21:47 | 37.76750 | -6.04983 | 14318 ft | 371 kts | 359° |
| 2026-04-29 21:47 | 37.79342 | -6.04776 | 14928 ft | 376 kts | 358° |
| 2026-04-29 21:47 | 37.81967 | -6.04556 | 15541 ft | 380 kts | 359° |
| 2026-04-29 21:48 | 37.84609 | -6.04287 | 16163 ft | 383 kts | 360° |
| 2026-04-29 21:48 | 37.87280 | -6.03987 | 16749 ft | 386 kts | 359° |
| 2026-04-29 21:48 | 37.89968 | -6.03680 | 17323 ft | 389 kts | 359° |
| 2026-04-29 21:48 | 37.92680 | -6.03369 | 17832 ft | 394 kts | 359° |
| 2026-04-29 21:49 | 37.95421 | -6.03075 | 18360 ft | 395 kts | 359° |
| 2026-04-29 21:49 | 37.98172 | -6.02792 | 18838 ft | 399 kts | 359° |
| 2026-04-29 21:49 | 38.00912 | -6.02502 | 19335 ft | 401 kts | 358° |
| 2026-04-29 21:49 | 38.03710 | -6.02214 | 19818 ft | 404 kts | 358° |
| 2026-04-29 21:50 | 38.06525 | -6.01919 | 20267 ft | 407 kts | 358° |
| 2026-04-29 21:50 | 38.09360 | -6.01623 | 20728 ft | 409 kts | 358° |
| 2026-04-29 21:50 | 38.12206 | -6.01327 | 21165 ft | 412 kts | 358° |
| 2026-04-29 21:50 | 38.15067 | -6.01027 | 21617 ft | 414 kts | 358° |
| 2026-04-29 21:51 | 38.17949 | -6.00729 | 22044 ft | 416 kts | 358° |
| 2026-04-29 21:51 | 38.20845 | -6.00424 | 22449 ft | 419 kts | 358° |
| 2026-04-29 21:51 | 38.26687 | -5.99812 | 23222 ft | 424 kts | 358° |
| 2026-04-29 21:52 | 38.29639 | -5.99502 | 23585 ft | 426 kts | 358° |
| 2026-04-29 21:52 | 38.32602 | -5.99189 | 23947 ft | 428 kts | 357° |
| 2026-04-29 21:52 | 38.35583 | -5.98881 | 24307 ft | 430 kts | 357° |
| 2026-04-29 21:52 | 38.38579 | -5.98566 | 24620 ft | 433 kts | 358° |
| 2026-04-29 21:53 | 38.41590 | -5.98245 | 24955 ft | 435 kts | 358° |
| 2026-04-29 21:53 | 38.44617 | -5.97929 | 25247 ft | 438 kts | 358° |
| 2026-04-29 21:53 | 38.47661 | -5.97610 | 25551 ft | 440 kts | 358° |
| 2026-04-29 21:53 | 38.50719 | -5.97290 | 25851 ft | 442 kts | 358° |
| 2026-04-29 21:54 | 38.53794 | -5.96961 | 26110 ft | 444 kts | 358° |
| 2026-04-29 21:54 | 38.56835 | -5.96637 | 26397 ft | 445 kts | 358° |
| 2026-04-29 21:54 | 38.59936 | -5.96314 | 26624 ft | 448 kts | 358° |
| 2026-04-29 21:54 | 38.63051 | -5.95986 | 26892 ft | 450 kts | 358° |
| 2026-04-29 21:55 | 38.66185 | -5.95650 | 27118 ft | 452 kts | 358° |
| 2026-04-29 21:55 | 38.69331 | -5.95316 | 27379 ft | 454 kts | 358° |
| 2026-04-29 21:55 | 38.72486 | -5.94984 | 27641 ft | 455 kts | 358° |
| 2026-04-29 21:55 | 38.74577 | -5.94759 | 27787 ft | 457 kts | 358° |
| 2026-04-29 21:56 | 38.77752 | -5.94420 | 28214 ft | 451 kts | 358° |
| 2026-04-29 21:56 | 38.80867 | -5.94090 | 28575 ft | 449 kts | 358° |
| 2026-04-29 21:56 | 38.83985 | -5.93765 | 28795 ft | 451 kts | 358° |
| 2026-04-29 21:56 | 38.87117 | -5.93427 | 29010 ft | 452 kts | 358° |
| 2026-04-29 21:57 | 38.90252 | -5.93093 | 29220 ft | 453 kts | 358° |
| 2026-04-29 21:57 | 38.93407 | -5.92755 | 29421 ft | 455 kts | 358° |
| 2026-04-29 21:57 | 38.96571 | -5.92415 | 29619 ft | 456 kts | 358° |
| 2026-04-29 21:57 | 38.99698 | -5.92085 | 29765 ft | 458 kts | 358° |
| 2026-04-29 21:58 | 39.02924 | -5.91739 | 29945 ft | 459 kts | 358° |
| 2026-04-29 21:58 | 39.06112 | -5.91398 | 30119 ft | 461 kts | 358° |
| 2026-04-29 21:58 | 39.09273 | -5.91065 | 30266 ft | 462 kts | 358° |
| 2026-04-29 21:58 | 39.12485 | -5.90717 | 30429 ft | 464 kts | 359° |
| 2026-04-29 21:59 | 39.15710 | -5.90365 | 30592 ft | 465 kts | 359° |
| 2026-04-29 21:59 | 39.18934 | -5.90021 | 30771 ft | 466 kts | 359° |
| 2026-04-29 21:59 | 39.22167 | -5.89669 | 30927 ft | 467 kts | 359° |
| 2026-04-29 21:59 | 39.25412 | -5.89324 | 31082 ft | 468 kts | 359° |
| 2026-04-29 22:00 | 39.28666 | -5.88972 | 31237 ft | 469 kts | 359° |
| 2026-04-29 22:00 | 39.31921 | -5.88622 | 31407 ft | 470 kts | 359° |
| 2026-04-29 22:00 | 39.35193 | -5.88270 | 31527 ft | 472 kts | 359° |
| 2026-04-29 22:00 | 39.38460 | -5.87912 | 31744 ft | 471 kts | 359° |
| 2026-04-29 22:01 | 39.41719 | -5.87555 | 31972 ft | 469 kts | 359° |
| 2026-04-29 22:01 | 39.44972 | -5.87205 | 32159 ft | 469 kts | 359° |
| 2026-04-29 22:01 | 39.48180 | -5.86858 | 32318 ft | 469 kts | 359° |
| 2026-04-29 22:01 | 39.51430 | -5.86506 | 32485 ft | 469 kts | 359° |
| 2026-04-29 22:02 | 39.54681 | -5.86150 | 32662 ft | 468 kts | 359° |
| 2026-04-29 22:02 | 39.57920 | -5.85796 | 32875 ft | 466 kts | 359° |
| 2026-04-29 22:02 | 39.61155 | -5.85444 | 33028 ft | 467 kts | 359° |
| 2026-04-29 22:02 | 39.64384 | -5.85093 | 33225 ft | 465 kts | 359° |
| 2026-04-29 22:03 | 39.67616 | -5.84738 | 33401 ft | 465 kts | 359° |
| 2026-04-29 22:03 | 39.70840 | -5.84392 | 33486 ft | 466 kts | 359° |
| 2026-04-29 22:03 | 39.77318 | -5.83679 | 33750 ft | 466 kts | 359° |
| 2026-04-29 22:04 | 39.80550 | -5.83326 | 33866 ft | 467 kts | 359° |
| 2026-04-29 22:04 | 39.83798 | -5.82971 | 33912 ft | 469 kts | 359° |
| 2026-04-29 22:04 | 39.90340 | -5.82249 | 33955 ft | 474 kts | 360° |
| 2026-04-29 22:05 | 39.96917 | -5.81528 | 33968 ft | 480 kts | 360° |
| 2026-04-29 22:06 | 40.07003 | -5.80415 | 33969 ft | 488 kts | 360° |
| 2026-04-29 22:06 | 40.13810 | -5.79663 | 33976 ft | 493 kts | 0° |
| 2026-04-29 22:07 | 40.20693 | -5.78903 | 33979 ft | 498 kts | 0° |
| 2026-04-29 22:07 | 40.27593 | -5.78138 | 33989 ft | 498 kts | 0° |
| 2026-04-29 22:08 | 40.34459 | -5.77370 | 33982 ft | 498 kts | 0° |
| 2026-04-29 22:08 | 40.41367 | -5.76602 | 33974 ft | 497 kts | 0° |
| 2026-04-29 22:09 | 40.48267 | -5.75833 | 33980 ft | 497 kts | 0° |
| 2026-04-29 22:09 | 40.54550 | -5.75130 | 33985 ft | 497 kts | 0° |
| 2026-04-29 22:10 | 40.61442 | -5.74355 | 33983 ft | 496 kts | 0° |
| 2026-04-29 22:10 | 40.68316 | -5.73589 | 33981 ft | 496 kts | 1° |
| 2026-04-29 22:11 | 40.75145 | -5.72818 | 33989 ft | 496 kts | 1° |
| 2026-04-29 22:11 | 40.81993 | -5.72044 | 33986 ft | 496 kts | 1° |
| 2026-04-29 22:12 | 40.88889 | -5.71263 | 33987 ft | 495 kts | 1° |
| 2026-04-29 22:12 | 40.95769 | -5.70484 | 33987 ft | 495 kts | 1° |
| 2026-04-29 22:13 | 41.02648 | -5.69701 | 33989 ft | 495 kts | 2° |
| 2026-04-29 22:13 | 41.09508 | -5.68922 | 33987 ft | 495 kts | 2° |
| 2026-04-29 22:14 | 41.16374 | -5.68135 | 33988 ft | 495 kts | 2° |
| 2026-04-29 22:14 | 41.23197 | -5.67361 | 33990 ft | 495 kts | 2° |
| 2026-04-29 22:15 | 41.30060 | -5.66570 | 33988 ft | 495 kts | 2° |
| 2026-04-29 22:15 | 41.36925 | -5.65785 | 33984 ft | 495 kts | 2° |
| 2026-04-29 22:16 | 41.43780 | -5.64995 | 33981 ft | 494 kts | 3° |
| 2026-04-29 22:16 | 41.50633 | -5.64208 | 33977 ft | 494 kts | 2° |
| 2026-04-29 22:17 | 41.57459 | -5.64551 | 33981 ft | 489 kts | 349° |
| 2026-04-29 22:17 | 41.64184 | -5.65956 | 33977 ft | 489 kts | 348° |
| 2026-04-29 22:18 | 41.70934 | -5.67185 | 33977 ft | 490 kts | 351° |
| 2026-04-29 22:18 | 41.77693 | -5.68375 | 33974 ft | 490 kts | 350° |
| 2026-04-29 22:19 | 41.84453 | -5.69570 | 33971 ft | 490 kts | 350° |
| 2026-04-29 22:19 | 41.91198 | -5.70765 | 33969 ft | 490 kts | 350° |
| 2026-04-29 22:20 | 41.97883 | -5.71951 | 33968 ft | 489 kts | 350° |
| 2026-04-29 22:20 | 42.04587 | -5.73149 | 33970 ft | 489 kts | 351° |
| 2026-04-29 22:21 | 42.11337 | -5.74359 | 33968 ft | 489 kts | 351° |
| 2026-04-29 22:21 | 42.18096 | -5.75571 | 33966 ft | 489 kts | 351° |
| 2026-04-29 22:22 | 42.24851 | -5.76795 | 33965 ft | 489 kts | 351° |
| 2026-04-29 22:22 | 42.31599 | -5.78002 | 33968 ft | 489 kts | 351° |
| 2026-04-29 22:23 | 42.38353 | -5.79215 | 33966 ft | 489 kts | 351° |
| 2026-04-29 22:23 | 42.45058 | -5.80424 | 33959 ft | 489 kts | 351° |
| 2026-04-29 22:24 | 42.51804 | -5.81642 | 33961 ft | 489 kts | 351° |
| 2026-04-29 22:24 | 42.58551 | -5.82866 | 33962 ft | 489 kts | 351° |
| 2026-04-29 22:25 | 42.65301 | -5.84093 | 33958 ft | 489 kts | 351° |
| 2026-04-29 22:25 | 42.72042 | -5.85328 | 33960 ft | 489 kts | 351° |
| 2026-04-29 22:26 | 42.78741 | -5.86533 | 33960 ft | 489 kts | 351° |
| 2026-04-29 22:26 | 42.85483 | -5.87778 | 33786 ft | 486 kts | 351° |
| 2026-04-29 22:26 | 42.88827 | -5.88368 | 32931 ft | 482 kts | 352° |
| 2026-04-29 22:27 | 42.92144 | -5.88907 | 32112 ft | 477 kts | 352° |
| 2026-04-29 22:27 | 42.95421 | -5.89457 | 31111 ft | 475 kts | 352° |
| 2026-04-29 22:27 | 42.98706 | -5.90010 | 29972 ft | 475 kts | 352° |
| 2026-04-29 22:27 | 43.01982 | -5.90570 | 28828 ft | 475 kts | 352° |
| 2026-04-29 22:28 | 43.05152 | -5.91756 | 27679 ft | 471 kts | 335° |
| 2026-04-29 22:28 | 43.08058 | -5.93789 | 26556 ft | 468 kts | 329° |
| 2026-04-29 22:28 | 43.10820 | -5.96073 | 25404 ft | 459 kts | 324° |
| 2026-04-29 22:28 | 43.13336 | -5.98707 | 24267 ft | 452 kts | 318° |
| 2026-04-29 22:29 | 43.14922 | -6.00539 | 23515 ft | 447 kts | 317° |
| 2026-04-29 22:29 | 43.18033 | -6.04172 | 21995 ft | 439 kts | 318° |
| 2026-04-29 22:29 | 43.20381 | -6.06813 | 20832 ft | 434 kts | 319° |
| 2026-04-29 22:29 | 43.22726 | -6.09372 | 19700 ft | 428 kts | 319° |
| 2026-04-29 22:30 | 43.25041 | -6.11904 | 18537 ft | 423 kts | 319° |
| 2026-04-29 22:30 | 43.27321 | -6.14420 | 17387 ft | 418 kts | 319° |
| 2026-04-29 22:30 | 43.29568 | -6.16916 | 16227 ft | 413 kts | 319° |
| 2026-04-29 22:30 | 43.31806 | -6.19363 | 15078 ft | 408 kts | 319° |
| 2026-04-29 22:31 | 43.34005 | -6.21781 | 13930 ft | 400 kts | 319° |
| 2026-04-29 22:31 | 43.36140 | -6.24148 | 12734 ft | 389 kts | 319° |
| 2026-04-29 22:31 | 43.38231 | -6.26446 | 11584 ft | 380 kts | 319° |
| 2026-04-29 22:31 | 43.40262 | -6.28693 | 10669 ft | 366 kts | 319° |
| 2026-04-29 22:32 | 43.42174 | -6.30810 | 10250 ft | 342 kts | 319° |
| 2026-04-29 22:32 | 43.43989 | -6.32823 | 9719 ft | 327 kts | 319° |
| 2026-04-29 22:32 | 43.45725 | -6.34749 | 9211 ft | 314 kts | 319° |
| 2026-04-29 22:32 | 43.47376 | -6.36579 | 8706 ft | 304 kts | 319° |
| 2026-04-29 22:33 | 43.48994 | -6.38372 | 8200 ft | 293 kts | 319° |
| 2026-04-29 22:33 | 43.50614 | -6.40020 | 7704 ft | 287 kts | 331° |
| 2026-04-29 22:33 | 43.52526 | -6.40568 | 7248 ft | 282 kts | 4° |
| 2026-04-29 22:33 | 43.54426 | -6.40074 | 6837 ft | 275 kts | 15° |
| 2026-04-29 22:34 | 43.56216 | -6.39260 | 6412 ft | 268 kts | 20° |
| 2026-04-29 22:34 | 43.57949 | -6.38387 | 5979 ft | 262 kts | 20° |
| 2026-04-29 22:34 | 43.59646 | -6.37539 | 5545 ft | 257 kts | 19° |
| 2026-04-29 22:34 | 43.61277 | -6.36628 | 5108 ft | 249 kts | 34° |
| 2026-04-29 22:35 | 43.62330 | -6.34849 | 4677 ft | 236 kts | 73° |
| 2026-04-29 22:35 | 43.62619 | -6.32671 | 4293 ft | 227 kts | 86° |
| 2026-04-29 22:35 | 43.62683 | -6.30534 | 3895 ft | 219 kts | 95° |
| 2026-04-29 22:35 | 43.62401 | -6.28540 | 3502 ft | 211 kts | 108° |
| 2026-04-29 22:36 | 43.61944 | -6.26658 | 3088 ft | 199 kts | 111° |
| 2026-04-29 22:36 | 43.61502 | -6.24959 | 2914 ft | 175 kts | 110° |
| 2026-04-29 22:36 | 43.61118 | -6.23489 | 2733 ft | 153 kts | 110° |
| 2026-04-29 22:36 | 43.60767 | -6.22102 | 2585 ft | 157 kts | 109° |
| 2026-04-29 22:37 | 43.60408 | -6.20642 | 2468 ft | 164 kts | 110° |
| 2026-04-29 22:37 | 43.60055 | -6.19159 | 2380 ft | 158 kts | 109° |
| 2026-04-29 22:37 | 43.59729 | -6.17784 | 2244 ft | 146 kts | 109° |
| 2026-04-29 22:37 | 43.59420 | -6.16465 | 2081 ft | 144 kts | 109° |
| 2026-04-29 22:38 | 43.59113 | -6.15159 | 1920 ft | 142 kts | 109° |
| 2026-04-29 22:38 | 43.58819 | -6.13888 | 1786 ft | 139 kts | 109° |
| 2026-04-29 22:38 | 43.58526 | -6.12610 | 1621 ft | 144 kts | 109° |
| 2026-04-29 22:38 | 43.58213 | -6.11264 | 1554 ft | 148 kts | 110° |
| 2026-04-29 22:39 | 43.57887 | -6.09942 | 1396 ft | 140 kts | 111° |
| 2026-04-29 22:39 | 43.57590 | -6.08695 | 1088 ft | 136 kts | 107° |
| 2026-04-29 22:39 | 43.57311 | -6.07416 | 854 ft | 140 kts | 109° |
| 2026-04-29 22:39 | 43.56987 | -6.06134 | 660 ft | 142 kts | 109° |
| 2026-04-29 22:40 | 43.56788 | -6.05269 | 523 ft | 142 kts | 109° |
| 2026-04-29 22:40 | 43.56419 | -6.03723 | 413 ft | 105 kts | 108° |
| 2026-04-29 22:40 | 43.56233 | -6.02940 | 426 ft | 64 kts | 108° |
| 2026-04-29 22:40 | 43.56127 | -6.02500 | 420 ft | 37 kts | 108° |
| 2026-04-29 22:41 | 43.56076 | -6.02286 | 416 ft | 17 kts | 108° |
| 2026-04-29 22:41 | 43.56010 | -6.02225 | 414 ft | 10 kts | 203° |
| 2026-04-29 22:41 | 43.55975 | -6.02291 | 421 ft | 9 kts | 244° |
| 2026-04-29 22:41 | 43.55950 | -6.02368 | 415 ft | 9 kts | 256° |
| 2026-04-29 22:42 | 43.55955 | -6.02463 | 416 ft | 11 kts | 287° |
| 2026-04-29 22:42 | 43.55981 | -6.02570 | 414 ft | 12 kts | 287° |
| 2026-04-29 22:42 | 43.56006 | -6.02679 | 420 ft | 12 kts | 288° |
| 2026-04-29 22:42 | 43.56034 | -6.02797 | 417 ft | 14 kts | 288° |
| 2026-04-29 22:43 | 43.56034 | -6.02891 | 419 ft | 8 kts | 224° |
| 2026-04-29 22:43 | 43.55997 | -6.02930 | 424 ft | 7 kts | 249° |
| 2026-04-29 22:43 | 43.56009 | -6.03028 | 424 ft | 12 kts | 285° |
| 2026-04-29 22:43 | 43.56034 | -6.03135 | 424 ft | 12 kts | 288° |
| 2026-04-29 22:44 | 43.56049 | -6.03202 | 413 ft | 4 kts | 288° |
| 2026-04-29 22:44 | 43.56049 | -6.03222 | 424 ft | 1 kts | 242° |
| 2026-04-29 22:44 | 43.56035 | -6.03239 | 419 ft | 3 kts | 207° |
| 2026-04-29 22:44 | 43.56024 | -6.03250 | 421 ft | 3 kts | 227° |
| 2026-04-29 22:45 | 43.56017 | -6.03266 | 424 ft | 0 kts | 240° |